Time;durP1;ratioP1;P1;durP2;ratioP2;P2;SDS_P1;SDS_P2;PMS_P1;PMS_P2;Temp;Humidity;BMP_temperature;BMP_pressure;BME280_temperature;BME280_humidity;BME280_pressure;Samples;Min_cycle;Max_cycle;Signal;HPM_P1;HPM_P2
2024/03/03 00:00:58;;;;;;;9.48;5.05;;;6.20;96.10;;;;;;5042820;28;20492;-63
2024/03/03 00:03:24;;;;;;;10.88;4.93;;;6.10;95.80;;;;;;5035831;28;20065;-64
2024/03/03 00:05:49;;;;;;;10.75;5.32;;;6.20;96.00;;;;;;5036607;28;20071;-63
2024/03/03 00:08:15;;;;;;;10.57;5.45;;;6.30;95.90;;;;;;5042463;28;20029;-63
2024/03/03 00:10:41;;;;;;;13.15;5.68;;;6.30;95.90;;;;;;5038776;28;20108;-65
2024/03/03 00:13:06;;;;;;;13.50;5.53;;;6.20;95.90;;;;;;5040636;28;20177;-63
2024/03/03 00:15:32;;;;;;;12.23;5.72;;;6.10;96.20;;;;;;5030419;28;20067;-64
2024/03/03 00:17:57;;;;;;;11.52;5.60;;;6.10;96.00;;;;;;5031361;28;20031;-63
2024/03/03 00:20:23;;;;;;;11.65;5.40;;;6.10;96.50;;;;;;5034072;28;20041;-64
2024/03/03 00:22:49;;;;;;;10.48;5.82;;;6.10;96.40;;;;;;5031797;28;20036;-64
2024/03/03 00:25:14;;;;;;;12.77;6.43;;;6.20;96.40;;;;;;5032819;28;20083;-64
2024/03/03 00:27:40;;;;;;;14.88;5.82;;;6.20;96.30;;;;;;5034938;28;20072;-63
2024/03/03 00:30:06;;;;;;;12.88;5.47;;;6.20;96.10;;;;;;5038832;28;20052;-65
2024/03/03 00:32:31;;;;;;;16.27;6.68;;;6.10;96.00;;;;;;5027163;28;20129;-64
2024/03/03 00:34:57;;;;;;;13.00;6.32;;;6.00;96.10;;;;;;5031887;28;20040;-63
2024/03/03 00:37:22;;;;;;;10.38;5.63;;;5.90;96.20;;;;;;5032647;28;20033;-64
2024/03/03 00:39:48;;;;;;;11.07;5.30;;;5.80;96.40;;;;;;5043487;28;20465;-63
2024/03/03 00:42:13;;;;;;;11.52;5.90;;;5.80;96.80;;;;;;5036292;28;20098;-64
2024/03/03 00:44:39;;;;;;;13.52;5.15;;;5.70;96.70;;;;;;5034578;28;20039;-63
2024/03/03 00:47:04;;;;;;;10.13;5.00;;;5.60;96.90;;;;;;5034718;28;20044;-64
2024/03/03 00:49:30;;;;;;;10.13;5.30;;;5.60;97.00;;;;;;5034712;28;20036;-63
2024/03/03 00:51:55;;;;;;;10.73;5.32;;;5.60;97.20;;;;;;5030941;28;20132;-64
2024/03/03 00:54:21;;;;;;;11.52;6.05;;;5.40;97.10;;;;;;5035752;28;20385;-64
2024/03/03 00:56:46;;;;;;;11.27;5.70;;;5.30;97.30;;;;;;5029947;28;20508;-64
2024/03/03 00:59:12;;;;;;;10.70;5.18;;;5.30;97.50;;;;;;5037354;28;20044;-63
2024/03/03 01:01:37;;;;;;;14.68;6.05;;;5.20;97.40;;;;;;5026386;28;20080;-63
2024/03/03 01:04:03;;;;;;;10.63;5.45;;;5.10;97.60;;;;;;5028102;28;20049;-63
2024/03/03 01:06:28;;;;;;;9.57;4.00;;;5.20;97.90;;;;;;5031317;28;20492;-64
2024/03/03 01:08:54;;;;;;;11.18;4.55;;;5.10;97.90;;;;;;5034361;28;20120;-63
2024/03/03 01:11:19;;;;;;;10.25;5.30;;;5.10;97.90;;;;;;5037658;28;20097;-63
2024/03/03 01:13:45;;;;;;;10.77;5.22;;;5.10;97.90;;;;;;5029324;28;20089;-64
2024/03/03 01:16:10;;;;;;;12.07;5.78;;;5.00;97.90;;;;;;5031958;28;20136;-65
2024/03/03 01:18:36;;;;;;;11.48;5.50;;;4.90;98.00;;;;;;5035131;28;20037;-65
2024/03/03 01:21:01;;;;;;;13.02;6.10;;;4.80;98.20;;;;;;5037529;28;20106;-65
2024/03/03 01:23:27;;;;;;;12.93;5.15;;;4.80;98.30;;;;;;5034587;28;20103;-64
2024/03/03 01:25:53;;;;;;;12.85;5.57;;;4.80;98.40;;;;;;5033566;28;20033;-62
2024/03/03 01:28:18;;;;;;;12.40;5.85;;;4.90;98.50;;;;;;5031831;28;20084;-64
2024/03/03 01:30:44;;;;;;;10.80;5.82;;;4.90;98.60;;;;;;5042801;28;20377;-62
2024/03/03 01:33:09;;;;;;;12.15;5.38;;;4.90;98.60;;;;;;5039643;28;20033;-64
2024/03/03 01:35:35;;;;;;;10.32;5.05;;;4.90;98.80;;;;;;5036494;28;20040;-63
2024/03/03 01:38:01;;;;;;;11.52;5.28;;;5.00;98.70;;;;;;5040576;28;20040;-62
2024/03/03 01:40:26;;;;;;;13.63;5.75;;;5.00;98.80;;;;;;5034848;28;20067;-64
2024/03/03 01:42:56;;;;;;;13.18;5.55;;;5.10;99.10;;;;;;5035027;28;20049;-63
2024/03/03 01:45:23;;;;;;;10.52;5.15;;;5.10;98.90;;;;;;5029863;28;20033;-64
2024/03/03 01:47:54;;;;;;;10.38;5.22;;;5.10;98.90;;;;;;5038929;28;20040;-63
2024/03/03 01:50:20;;;;;;;;;;;5.00;98.80;;;;;;5036557;28;20088;-65
2024/03/03 01:52:48;;;;;;;9.95;4.55;;;5.10;98.90;;;;;;5027520;28;19913;-64
2024/03/03 01:55:16;;;;;;;13.20;6.03;;;5.10;98.90;;;;;;5031407;28;20469;-64
2024/03/03 01:57:42;;;;;;;13.02;5.50;;;5.00;98.90;;;;;;5029562;28;20124;-63
2024/03/03 02:00:11;;;;;;;11.85;5.43;;;5.10;99.10;;;;;;5036778;28;20116;-63
2024/03/03 02:02:38;;;;;;;13.50;6.60;;;5.10;99.10;;;;;;5027519;28;20030;-63
2024/03/03 02:05:06;;;;;;;10.73;5.07;;;5.10;99.00;;;;;;5032135;28;20025;-63
2024/03/03 02:07:32;;;;;;;12.63;5.65;;;5.30;99.20;;;;;;5039312;28;20052;-63
2024/03/03 02:09:58;;;;;;;12.05;6.18;;;5.20;99.10;;;;;;5036500;28;20033;-64
2024/03/03 02:12:25;;;;;;;14.23;6.32;;;5.30;99.10;;;;;;5035396;28;20094;-63
2024/03/03 02:14:51;;;;;;;11.55;5.47;;;5.30;99.10;;;;;;5034350;28;20022;-63
2024/03/03 02:17:17;;;;;;;13.57;5.95;;;5.30;99.00;;;;;;5028408;28;20490;-64
2024/03/03 02:19:43;;;;;;;11.65;6.38;;;5.30;99.10;;;;;;5036689;28;20209;-63
2024/03/03 02:22:08;;;;;;;11.40;6.38;;;5.30;99.10;;;;;;5031920;28;20112;-64
2024/03/03 02:24:34;;;;;;;11.60;5.90;;;5.20;98.90;;;;;;5043795;28;20121;-63
2024/03/03 02:27:01;;;;;;;10.98;6.15;;;5.30;99.00;;;;;;5032332;28;20125;-64
2024/03/03 02:29:28;;;;;;;13.20;6.38;;;5.20;99.00;;;;;;5033721;28;20041;-63
2024/03/03 02:31:53;;;;;;;10.95;5.53;;;5.20;99.10;;;;;;5031112;28;20331;-63
2024/03/03 02:34:19;;;;;;;12.70;5.75;;;5.10;99.00;;;;;;5033175;28;20037;-64
2024/03/03 02:36:44;;;;;;;14.10;6.35;;;5.10;99.00;;;;;;5034478;28;20473;-63
2024/03/03 02:39:10;;;;;;;14.43;5.25;;;5.10;98.90;;;;;;5040596;28;20021;-64
2024/03/03 02:41:35;;;;;;;10.18;5.43;;;5.00;99.10;;;;;;5036886;28;20076;-63
2024/03/03 02:44:01;;;;;;;11.43;5.93;;;5.10;99.10;;;;;;5033962;28;20092;-64
2024/03/03 02:46:26;;;;;;;11.73;6.40;;;5.00;99.20;;;;;;5036052;28;20041;-63
2024/03/03 02:48:52;;;;;;;13.85;5.82;;;5.00;99.20;;;;;;5031156;28;20037;-63
2024/03/03 02:51:17;;;;;;;11.75;6.25;;;5.00;99.30;;;;;;5032208;28;20093;-63
2024/03/03 02:53:42;;;;;;;16.42;5.72;;;5.00;99.30;;;;;;5032101;28;20032;-62
2024/03/03 02:56:08;;;;;;;16.20;6.70;;;5.00;99.40;;;;;;5037838;28;20034;-63
2024/03/03 02:58:34;;;;;;;14.40;6.65;;;4.90;99.30;;;;;;5029029;28;20132;-62
2024/03/03 03:01:00;;;;;;;13.95;5.72;;;4.90;99.40;;;;;;5035145;28;20044;-63
2024/03/03 03:03:25;;;;;;;13.35;6.65;;;4.90;99.40;;;;;;5036845;28;20069;-63
2024/03/03 03:05:51;;;;;;;12.82;6.28;;;4.90;99.50;;;;;;5040437;28;20045;-63
2024/03/03 03:08:16;;;;;;;12.60;5.93;;;4.90;99.50;;;;;;5028310;28;20033;-62
2024/03/03 03:10:42;;;;;;;11.38;5.50;;;4.80;99.40;;;;;;5031365;28;20535;-65
2024/03/03 03:13:07;;;;;;;13.90;5.68;;;4.70;99.40;;;;;;5033798;28;20039;-63
2024/03/03 03:15:35;;;;;;;15.38;6.07;;;4.60;99.40;;;;;;5026744;28;20135;-63
2024/03/03 03:18:04;;;;;;;12.20;5.82;;;4.70;99.60;;;;;;5030934;28;20033;-64
2024/03/03 03:20:30;;;;;;;15.75;6.90;;;4.60;99.50;;;;;;5042113;28;20033;-63
2024/03/03 03:22:56;;;;;;;13.27;5.95;;;4.60;99.60;;;;;;5035199;28;20056;-63
2024/03/03 03:25:21;;;;;;;11.90;6.05;;;4.60;99.80;;;;;;5031555;28;20062;-64
2024/03/03 03:27:46;;;;;;;15.25;6.75;;;4.60;99.60;;;;;;5034248;28;20485;-64
2024/03/03 03:30:12;;;;;;;15.23;6.47;;;4.60;99.80;;;;;;5031024;28;20086;-64
2024/03/03 03:32:38;;;;;;;12.65;5.43;;;4.60;99.80;;;;;;5036742;28;20116;-63
2024/03/03 03:35:04;;;;;;;11.25;5.93;;;4.40;99.80;;;;;;5035742;28;20043;-64
2024/03/03 03:37:30;;;;;;;13.13;6.15;;;4.30;99.70;;;;;;5030928;28;20092;-64
2024/03/03 03:39:56;;;;;;;13.93;6.07;;;4.30;99.90;;;;;;5034013;28;20101;-64
2024/03/03 03:42:21;;;;;;;12.48;6.13;;;4.20;99.90;;;;;;5034572;28;20067;-64
2024/03/03 03:44:47;;;;;;;12.45;5.68;;;4.20;99.80;;;;;;5036661;28;20092;-64
2024/03/03 03:47:13;;;;;;;12.13;6.10;;;4.20;99.90;;;;;;5035735;28;20559;-64
2024/03/03 03:49:38;;;;;;;13.85;6.65;;;4.10;99.90;;;;;;5036465;28;20433;-63
2024/03/03 03:52:04;;;;;;;12.32;5.97;;;4.10;99.90;;;;;;5034532;28;20106;-64
2024/03/03 03:54:30;;;;;;;13.18;6.65;;;4.10;99.90;;;;;;5036763;28;20031;-64
2024/03/03 03:56:59;;;;;;;14.90;6.57;;;4.10;99.90;;;;;;5036876;28;20029;-64
2024/03/03 03:59:25;;;;;;;11.00;5.30;;;4.10;99.90;;;;;;5038005;28;20333;-65
2024/03/03 04:01:51;;;;;;;13.57;6.00;;;4.10;99.90;;;;;;5030485;28;20445;-63
2024/03/03 04:04:17;;;;;;;14.23;6.57;;;4.10;99.90;;;;;;5037614;28;20051;-64
2024/03/03 04:06:43;;;;;;;16.08;6.25;;;4.10;99.90;;;;;;5032299;28;20188;-65
2024/03/03 04:09:08;;;;;;;14.75;6.30;;;4.10;99.90;;;;;;5033468;28;20128;-63
2024/03/03 04:11:34;;;;;;;11.93;6.25;;;4.10;99.90;;;;;;5040142;28;20049;-63
2024/03/03 04:14:00;;;;;;;17.33;7.28;;;4.10;99.90;;;;;;5036590;28;20029;-63
2024/03/03 04:16:26;;;;;;;14.15;6.80;;;4.10;99.90;;;;;;5028195;28;20477;-64
2024/03/03 04:18:51;;;;;;;16.65;6.80;;;4.00;99.90;;;;;;5039944;28;20121;-64
2024/03/03 04:21:17;;;;;;;14.43;6.65;;;4.00;99.90;;;;;;5040037;28;20040;-64
2024/03/03 04:23:42;;;;;;;14.20;5.97;;;3.90;99.90;;;;;;5037163;28;20586;-64
2024/03/03 04:26:09;;;;;;;15.88;6.97;;;3.80;99.90;;;;;;5036003;28;20103;-64
2024/03/03 04:28:34;;;;;;;14.07;5.53;;;3.80;99.90;;;;;;5033524;28;20163;-64
2024/03/03 04:31:05;;;;;;;14.70;7.10;;;3.70;99.90;;;;;;5037979;28;20096;-64
2024/03/03 04:33:31;;;;;;;12.65;6.32;;;3.70;99.90;;;;;;5037818;28;20029;-64
2024/03/03 04:35:57;;;;;;;17.75;7.30;;;3.80;99.90;;;;;;5031803;28;20029;-64
2024/03/03 04:38:22;;;;;;;14.30;6.57;;;3.80;99.90;;;;;;5031767;28;20195;-64
2024/03/03 04:40:48;;;;;;;14.15;7.35;;;3.70;99.90;;;;;;5038250;28;20028;-64
2024/03/03 04:43:14;;;;;;;15.35;7.07;;;3.70;99.90;;;;;;5036150;28;20063;-64
2024/03/03 04:45:39;;;;;;;13.13;6.38;;;3.70;99.90;;;;;;5036362;28;20500;-64
2024/03/03 04:48:05;;;;;;;14.95;6.63;;;3.90;99.90;;;;;;5035216;28;20033;-64
2024/03/03 04:50:31;;;;;;;15.20;6.60;;;3.70;99.90;;;;;;5035188;28;20033;-63
2024/03/03 04:52:56;;;;;;;13.38;6.40;;;3.70;99.90;;;;;;5038602;28;20052;-63
2024/03/03 04:55:21;;;;;;;15.43;6.85;;;3.80;99.90;;;;;;5038253;28;20035;-64
2024/03/03 04:57:47;;;;;;;12.52;6.20;;;4.00;99.90;;;;;;5035624;28;20415;-64
2024/03/03 05:00:14;;;;;;;13.43;6.72;;;3.90;99.90;;;;;;5037590;28;20033;-65
2024/03/03 05:02:39;;;;;;;17.27;8.00;;;3.90;99.90;;;;;;5034473;28;20033;-64
2024/03/03 05:05:06;;;;;;;11.40;5.50;;;3.90;99.90;;;;;;5041011;28;20051;-64
2024/03/03 05:07:33;;;;;;;18.42;7.88;;;4.00;99.90;;;;;;5039402;28;20045;-63
2024/03/03 05:09:58;;;;;;;14.70;7.13;;;3.90;99.90;;;;;;5036625;28;20115;-64
2024/03/03 05:12:24;;;;;;;13.25;6.95;;;3.80;99.90;;;;;;5034306;28;20109;-63
2024/03/03 05:14:49;;;;;;;11.50;6.53;;;4.00;99.90;;;;;;5034802;28;20086;-64
2024/03/03 05:17:15;;;;;;;12.57;6.32;;;4.10;99.90;;;;;;5030748;28;20403;-64
2024/03/03 05:19:40;;;;;;;12.35;6.28;;;4.10;99.90;;;;;;5033436;28;20037;-64
2024/03/03 05:22:07;;;;;;;16.88;7.18;;;3.90;99.90;;;;;;5029189;28;20037;-64
2024/03/03 05:24:33;;;;;;;14.55;6.50;;;4.00;99.90;;;;;;5038178;28;20054;-65
2024/03/03 05:26:58;;;;;;;18.27;7.00;;;4.00;99.90;;;;;;5032719;28;20049;-65
2024/03/03 05:29:26;;;;;;;15.50;7.10;;;4.00;99.90;;;;;;5038215;28;20127;-62
2024/03/03 05:31:52;;;;;;;15.77;7.32;;;3.80;99.90;;;;;;5038266;28;20354;-62
2024/03/03 05:34:17;;;;;;;12.88;6.38;;;3.70;99.90;;;;;;5037147;28;20045;-62
2024/03/03 05:36:43;;;;;;;13.57;5.65;;;3.70;99.90;;;;;;5031962;28;20167;-62
2024/03/03 05:39:10;;;;;;;16.65;7.35;;;3.70;99.90;;;;;;5042514;28;20107;-62
2024/03/03 05:41:36;;;;;;;16.35;7.25;;;3.70;99.90;;;;;;5039620;28;20096;-62
2024/03/03 05:44:02;;;;;;;18.67;7.15;;;3.80;99.90;;;;;;5039851;28;20417;-63
2024/03/03 05:46:28;;;;;;;15.75;8.05;;;3.80;99.90;;;;;;5033364;28;20396;-62
2024/03/03 05:48:53;;;;;;;16.45;8.13;;;3.80;99.90;;;;;;5040439;28;20025;-62
2024/03/03 05:51:19;;;;;;;14.00;6.90;;;3.80;99.90;;;;;;5035573;28;20029;-63
2024/03/03 05:53:45;;;;;;;15.75;7.90;;;3.90;99.90;;;;;;5032673;28;20082;-62
2024/03/03 05:56:15;;;;;;;15.15;7.05;;;3.80;99.90;;;;;;5033354;28;20029;-62
2024/03/03 05:58:41;;;;;;;16.45;8.52;;;3.90;99.90;;;;;;5030153;28;20034;-63
2024/03/03 06:01:07;;;;;;;17.80;8.18;;;4.00;99.90;;;;;;5032407;28;20117;-63
2024/03/03 06:03:32;;;;;;;14.02;6.50;;;3.90;99.90;;;;;;5031284;28;20075;-61
2024/03/03 06:05:58;;;;;;;14.55;7.45;;;3.80;99.90;;;;;;5034946;28;20462;-62
2024/03/03 06:08:23;;;;;;;15.20;6.95;;;3.80;99.90;;;;;;5037919;28;20021;-62
2024/03/03 06:10:49;;;;;;;14.50;7.22;;;3.70;99.90;;;;;;5039331;28;20073;-63
2024/03/03 06:13:14;;;;;;;14.55;7.40;;;3.60;99.90;;;;;;5037584;28;20025;-61
2024/03/03 06:15:40;;;;;;;17.73;7.75;;;3.60;99.90;;;;;;5038111;28;20029;-62
2024/03/03 06:18:05;;;;;;;16.30;6.88;;;3.70;99.90;;;;;;5044991;28;20033;-62
2024/03/03 06:20:31;;;;;;;14.02;7.25;;;3.70;99.90;;;;;;5040356;28;20041;-62
2024/03/03 06:22:57;;;;;;;16.83;7.72;;;3.70;99.90;;;;;;5033786;28;20607;-62
2024/03/03 06:25:22;;;;;;;16.38;7.45;;;3.70;99.90;;;;;;5028009;28;20430;-62
2024/03/03 06:27:48;;;;;;;15.30;7.50;;;3.70;99.90;;;;;;5031503;28;20081;-62
2024/03/03 06:30:14;;;;;;;12.05;7.28;;;3.60;99.90;;;;;;5034747;28;20128;-61
2024/03/03 06:32:42;;;;;;;14.10;6.90;;;3.60;99.90;;;;;;5035834;28;20171;-62
2024/03/03 06:35:12;;;;;;;16.83;7.95;;;3.60;99.90;;;;;;5031684;28;21241;-62
2024/03/03 06:37:38;;;;;;;15.93;7.25;;;3.60;99.90;;;;;;5041109;28;20036;-62
2024/03/03 06:40:04;;;;;;;15.90;7.03;;;3.60;99.90;;;;;;5033703;28;20033;-62
2024/03/03 06:42:33;;;;;;;19.67;6.95;;;3.60;99.90;;;;;;5040509;28;20596;-62
2024/03/03 06:44:59;;;;;;;16.83;6.55;;;3.60;99.90;;;;;;5040781;28;20044;-63
2024/03/03 06:47:26;;;;;;;15.82;7.53;;;3.60;99.90;;;;;;5036172;28;20486;-63
2024/03/03 06:49:54;;;;;;;16.55;7.38;;;3.60;99.90;;;;;;5042843;28;20075;-62
2024/03/03 06:52:20;;;;;;;16.33;6.93;;;3.60;99.90;;;;;;5034087;28;20387;-62
2024/03/03 06:54:46;;;;;;;19.42;7.78;;;3.70;99.90;;;;;;5034741;28;20033;-63
2024/03/03 06:57:11;;;;;;;17.80;7.82;;;3.80;99.90;;;;;;5031823;28;20041;-62
2024/03/03 06:59:38;;;;;;;18.25;8.55;;;3.80;99.90;;;;;;5033507;28;20033;-62
2024/03/03 07:02:04;;;;;;;15.60;7.03;;;3.90;99.90;;;;;;5031044;28;20448;-63
2024/03/03 07:04:29;;;;;;;13.60;6.95;;;4.00;99.90;;;;;;5034035;28;20155;-63
2024/03/03 07:06:55;;;;;;;16.80;6.75;;;4.10;99.90;;;;;;5034325;28;20045;-64
2024/03/03 07:09:23;;;;;;;17.00;8.18;;;4.00;99.90;;;;;;5037342;28;20153;-62
2024/03/03 07:11:53;;;;;;;14.10;7.38;;;4.10;99.90;;;;;;5035576;28;20059;-63
2024/03/03 07:14:19;;;;;;;14.10;7.07;;;4.10;99.90;;;;;;5040678;28;20152;-63
2024/03/03 07:16:46;;;;;;;16.25;7.82;;;4.10;99.90;;;;;;5031235;28;20374;-62
2024/03/03 07:19:11;;;;;;;13.93;6.95;;;4.30;99.90;;;;;;5036873;28;20438;-63
2024/03/03 07:21:37;;;;;;;17.17;7.22;;;4.30;99.90;;;;;;5030804;28;20029;-66
2024/03/03 07:24:03;;;;;;;16.30;7.03;;;4.40;99.90;;;;;;5038951;28;20033;-62
2024/03/03 07:26:29;;;;;;;15.25;7.03;;;4.60;99.90;;;;;;5041948;28;20339;-64
2024/03/03 07:28:55;;;;;;;15.77;6.82;;;4.60;99.90;;;;;;5036488;28;20079;-64
2024/03/03 07:31:20;;;;;;;15.13;6.78;;;4.60;99.90;;;;;;5038253;28;20081;-65
2024/03/03 07:33:46;;;;;;;17.17;7.65;;;4.70;99.90;;;;;;5032950;28;20048;-64
2024/03/03 07:36:12;;;;;;;17.30;7.90;;;4.80;99.90;;;;;;5033775;28;20087;-64
2024/03/03 07:38:37;;;;;;;17.35;7.75;;;4.90;99.90;;;;;;5035653;28;20313;-65
2024/03/03 07:41:03;;;;;;;15.40;7.32;;;5.00;99.90;;;;;;5032567;28;20033;-65
2024/03/03 07:43:29;;;;;;;13.32;5.82;;;5.10;99.90;;;;;;5037139;28;20033;-65
2024/03/03 07:45:54;;;;;;;15.25;8.00;;;5.20;99.90;;;;;;5035877;28;20039;-64
2024/03/03 07:48:20;;;;;;;15.60;6.80;;;5.50;99.90;;;;;;5034265;28;20380;-65
2024/03/03 07:50:45;;;;;;;13.85;7.60;;;5.50;99.90;;;;;;5032899;28;20036;-64
2024/03/03 07:53:11;;;;;;;14.00;7.00;;;5.60;99.90;;;;;;5034431;28;20026;-65
2024/03/03 07:55:37;;;;;;;19.73;8.30;;;5.70;99.90;;;;;;5042953;28;20025;-65
2024/03/03 07:58:03;;;;;;;15.48;7.55;;;5.70;99.90;;;;;;5040433;28;20029;-65
2024/03/03 08:00:33;;;;;;;14.93;7.57;;;5.80;99.90;;;;;;5030110;28;20037;-65
2024/03/03 08:03:07;;;;;;;15.88;7.57;;;6.00;99.90;;;;;;5036803;28;20020;-62
2024/03/03 08:05:33;;;;;;;16.42;8.60;;;6.10;99.90;;;;;;5042180;28;20125;-61
2024/03/03 08:07:59;;;;;;;15.75;8.10;;;6.10;99.90;;;;;;5036389;28;20124;-63
2024/03/03 08:10:25;;;;;;;13.63;7.05;;;6.30;99.90;;;;;;5032308;28;20075;-63
2024/03/03 08:12:51;;;;;;;16.48;7.63;;;6.60;99.90;;;;;;5035447;28;20033;-63
2024/03/03 08:15:16;;;;;;;16.25;6.90;;;6.60;99.90;;;;;;5036647;28;20544;-63
2024/03/03 08:17:42;;;;;;;15.70;7.20;;;6.70;99.90;;;;;;5034379;28;20116;-63
2024/03/03 08:20:10;;;;;;;15.70;7.45;;;6.80;99.90;;;;;;5037185;28;20357;-62
2024/03/03 08:22:39;;;;;;;15.90;7.32;;;7.00;99.90;;;;;;5029112;28;20421;-63
2024/03/03 08:25:09;;;;;;;15.57;8.02;;;7.00;99.20;;;;;;5032231;28;20358;-63
2024/03/03 08:27:34;;;;;;;17.20;8.50;;;7.10;98.80;;;;;;5030377;28;20353;-63
2024/03/03 08:30:01;;;;;;;17.35;8.25;;;7.30;98.60;;;;;;5035717;28;20040;-63
2024/03/03 08:32:27;;;;;;;16.42;8.45;;;7.50;98.40;;;;;;5036226;28;20029;-63
2024/03/03 08:34:52;;;;;;;14.77;7.57;;;7.70;98.10;;;;;;5039477;28;20472;-63
2024/03/03 08:37:18;;;;;;;16.35;8.85;;;7.80;97.70;;;;;;5038108;28;20526;-63
2024/03/03 08:39:43;;;;;;;16.95;8.93;;;7.80;96.00;;;;;;5031737;28;20098;-64
2024/03/03 08:42:09;;;;;;;15.13;8.05;;;7.80;96.10;;;;;;5033061;28;20044;-64
2024/03/03 08:44:34;;;;;;;17.10;8.90;;;7.80;95.70;;;;;;5032126;28;20190;-64
2024/03/03 08:47:00;;;;;;;17.35;8.27;;;7.90;95.50;;;;;;5027987;28;20477;-63
2024/03/03 08:49:25;;;;;;;18.85;9.20;;;8.00;95.60;;;;;;5031866;28;20055;-64
2024/03/03 08:51:51;;;;;;;15.43;8.20;;;8.20;95.30;;;;;;5036515;28;20025;-63
2024/03/03 08:54:16;;;;;;;15.65;7.95;;;8.50;94.90;;;;;;5039585;28;20036;-63
2024/03/03 08:56:42;;;;;;;15.77;8.30;;;8.20;94.20;;;;;;5033492;28;20044;-65
2024/03/03 08:59:08;;;;;;;13.93;8.20;;;8.40;94.50;;;;;;5034920;28;20085;-63
2024/03/03 09:01:36;;;;;;;14.52;8.05;;;8.60;94.20;;;;;;5031831;28;20044;-63
2024/03/03 09:04:02;;;;;;;17.13;8.60;;;8.40;93.20;;;;;;5033867;28;20442;-63
2024/03/03 09:06:27;;;;;;;14.98;7.25;;;8.80;93.90;;;;;;5028001;28;20045;-64
2024/03/03 09:08:53;;;;;;;14.00;7.72;;;8.90;93.20;;;;;;5034888;28;20152;-63
2024/03/03 09:11:19;;;;;;;16.08;8.40;;;8.70;93.00;;;;;;5030526;28;20148;-64
2024/03/03 09:13:44;;;;;;;13.45;7.82;;;8.90;92.90;;;;;;5032310;28;20365;-65
2024/03/03 09:16:11;;;;;;;15.10;7.90;;;9.10;93.00;;;;;;5033990;28;20468;-63
2024/03/03 09:18:37;;;;;;;16.60;8.30;;;9.20;92.20;;;;;;5036513;28;22118;-61
2024/03/03 09:21:06;;;;;;;15.13;7.43;;;8.90;90.70;;;;;;5032029;28;20095;-62
2024/03/03 09:23:32;;;;;;;17.10;8.60;;;8.80;91.70;;;;;;5039647;28;20136;-62
2024/03/03 09:25:59;;;;;;;16.75;8.25;;;9.00;92.00;;;;;;5031193;28;20108;-62
2024/03/03 09:28:25;;;;;;;17.88;8.27;;;8.90;92.30;;;;;;5031977;28;20029;-65
2024/03/03 09:30:50;;;;;;;16.10;8.45;;;9.40;91.90;;;;;;5031818;28;20106;-62
2024/03/03 09:33:15;;;;;;;15.75;8.00;;;9.40;89.90;;;;;;5036936;28;20092;-64
2024/03/03 09:35:41;;;;;;;18.42;9.23;;;9.50;90.20;;;;;;5039529;28;20112;-64
2024/03/03 09:38:07;;;;;;;20.30;8.90;;;9.30;89.50;;;;;;5041008;28;20052;-62
2024/03/03 09:40:35;;;;;;;15.23;9.27;;;9.80;90.30;;;;;;5034547;28;20028;-62
2024/03/03 09:43:03;;;;;;;19.55;9.77;;;9.70;89.00;;;;;;5030201;28;20122;-62
2024/03/03 09:45:30;;;;;;;13.23;7.70;;;10.10;90.20;;;;;;5035075;28;20103;-62
2024/03/03 09:47:59;;;;;;;17.15;8.98;;;10.00;88.00;;;;;;5032932;28;20049;-63
2024/03/03 09:50:26;;;;;;;15.10;7.97;;;9.90;89.10;;;;;;5039768;28;20510;-62
2024/03/03 09:52:58;;;;;;;14.63;8.30;;;10.10;88.90;;;;;;5032523;28;20037;-63
2024/03/03 09:55:29;;;;;;;16.33;8.95;;;10.30;87.60;;;;;;5029614;28;20040;-64
2024/03/03 09:57:55;;;;;;;17.88;8.80;;;10.50;88.40;;;;;;5031334;28;20137;-63
2024/03/03 10:00:22;;;;;;;13.98;7.78;;;10.70;87.30;;;;;;5034807;28;20559;-63
2024/03/03 10:02:49;;;;;;;14.18;7.43;;;10.80;87.20;;;;;;5040295;28;20439;-63
2024/03/03 10:05:15;;;;;;;13.50;7.47;;;10.50;86.10;;;;;;5034010;28;20048;-64
2024/03/03 10:07:53;;;;;;;17.45;8.48;;;10.80;86.60;;;;;;5039252;28;20049;-63
2024/03/03 10:10:25;;;;;;;15.60;8.00;;;10.80;86.80;;;;;;5031403;28;20116;-69
2024/03/03 10:12:52;;;;;;;15.00;8.52;;;10.90;86.10;;;;;;5028953;28;20041;-63
2024/03/03 10:15:20;;;;;;;13.68;7.47;;;11.10;86.40;;;;;;5032368;28;20052;-62
2024/03/03 10:17:46;;;;;;;14.02;7.18;;;11.20;85.40;;;;;;5037319;28;20469;-62
2024/03/03 10:20:12;;;;;;;15.20;8.07;;;11.30;85.10;;;;;;5038967;28;20029;-62
2024/03/03 10:22:38;;;;;;;15.95;7.50;;;11.30;84.60;;;;;;5035368;28;20166;-63
2024/03/03 10:25:11;;;;;;;12.50;7.32;;;11.70;85.40;;;;;;5044191;28;20037;-64
2024/03/03 10:27:45;;;;;;;12.25;7.32;;;12.00;84.90;;;;;;5031847;28;20049;-63
2024/03/03 10:30:12;;;;;;;14.55;7.78;;;11.80;84.60;;;;;;5031324;28;20335;-63
2024/03/03 10:32:42;;;;;;;12.18;7.00;;;11.90;84.00;;;;;;5038042;28;20056;-63
2024/03/03 10:35:09;;;;;;;14.55;7.40;;;12.20;83.80;;;;;;5035943;28;20029;-63
2024/03/03 10:37:35;;;;;;;14.80;7.80;;;12.20;83.20;;;;;;5028482;28;20100;-62
2024/03/03 10:40:01;;;;;;;16.02;8.48;;;12.50;82.90;;;;;;5034978;28;20463;-63
2024/03/03 10:42:29;;;;;;;15.77;7.28;;;12.50;82.00;;;;;;5029585;28;20411;-63
2024/03/03 10:44:55;;;;;;;13.90;7.85;;;12.40;82.90;;;;;;5038522;28;20029;-65
2024/03/03 10:47:21;;;;;;;17.90;8.75;;;12.40;81.40;;;;;;5039213;28;20369;-64
2024/03/03 10:49:47;;;;;;;15.63;8.07;;;12.70;81.90;;;;;;5038104;28;20030;-63
2024/03/03 10:52:12;;;;;;;14.85;7.90;;;12.60;80.70;;;;;;5038387;28;20354;-65
2024/03/03 10:54:38;;;;;;;15.50;7.85;;;12.80;80.60;;;;;;5036913;28;20784;-67
2024/03/03 10:57:05;;;;;;;17.50;8.40;;;12.90;80.10;;;;;;5032005;28;20110;-64
2024/03/03 10:59:34;;;;;;;15.60;8.05;;;12.90;78.10;;;;;;5036149;28;20063;-67
2024/03/03 11:02:01;;;;;;;16.17;8.00;;;12.80;78.70;;;;;;5036074;28;20112;-65
2024/03/03 11:04:31;;;;;;;15.48;7.13;;;12.90;79.20;;;;;;5037384;28;20039;-65
2024/03/03 11:06:59;;;;;;;14.23;7.73;;;12.80;79.00;;;;;;5034812;28;20037;-63
2024/03/03 11:09:26;;;;;;;14.02;7.30;;;13.00;78.70;;;;;;5033273;28;20036;-63
2024/03/03 11:12:00;;;;;;;12.80;7.47;;;12.90;78.40;;;;;;5030630;28;20059;-63
2024/03/03 11:14:42;;;;;;;16.13;8.05;;;13.10;78.00;;;;;;5029860;28;20029;-63
2024/03/03 11:17:13;;;;;;;15.27;7.15;;;13.10;77.80;;;;;;5035720;28;20414;-64
2024/03/03 11:19:46;;;;;;;12.18;6.60;;;13.00;78.30;;;;;;5038318;28;20040;-64
2024/03/03 11:22:22;;;;;;;15.05;7.93;;;13.10;77.30;;;;;;5032388;28;20342;-64
2024/03/03 11:25:01;;;;;;;13.55;7.10;;;13.10;78.60;;;;;;5039070;28;20120;-63
2024/03/03 11:27:29;;;;;;;11.18;6.32;;;13.40;76.60;;;;;;5029623;28;20092;-65
2024/03/03 11:29:55;;;;;;;11.55;6.38;;;13.70;77.40;;;;;;5036678;28;20514;-63
2024/03/03 11:32:24;;;;;;;12.50;6.60;;;13.60;76.50;;;;;;5029477;28;20028;-64
2024/03/03 11:34:50;;;;;;;13.70;6.63;;;14.00;76.60;;;;;;5034813;28;20115;-64
2024/03/03 11:37:17;;;;;;;10.80;5.78;;;14.20;75.60;;;;;;5027855;28;20701;-65
2024/03/03 11:39:55;;;;;;;12.30;6.90;;;14.40;74.50;;;;;;5035172;28;20040;-65
2024/03/03 11:42:31;;;;;;;12.65;6.25;;;14.50;74.90;;;;;;5036916;28;20041;-64
2024/03/03 11:44:57;;;;;;;11.80;6.50;;;14.70;74.30;;;;;;5039494;28;20326;-64
2024/03/03 11:47:24;;;;;;;13.02;6.25;;;14.50;73.20;;;;;;5036845;28;20089;-64
2024/03/03 11:49:50;;;;;;;11.15;5.90;;;14.60;73.70;;;;;;5031950;28;20132;-64
2024/03/03 11:52:40;;;;;;;10.98;5.72;;;14.60;71.80;;;;;;5033519;28;20112;-64
2024/03/03 11:55:08;;;;;;;12.02;6.45;;;14.30;72.80;;;;;;5032237;28;20545;-65
2024/03/03 11:57:33;;;;;;;10.68;5.45;;;14.70;74.00;;;;;;5033908;28;20037;-64
2024/03/03 12:00:12;;;;;;;12.88;6.13;;;14.90;71.90;;;;;;5034553;28;20320;-65
2024/03/03 12:02:39;;;;;;;14.60;6.45;;;14.90;70.70;;;;;;5036376;28;20055;-64
2024/03/03 12:05:08;;;;;;;9.88;5.63;;;15.10;72.00;;;;;;5039253;28;20052;-64
2024/03/03 12:07:34;;;;;;;10.23;5.72;;;15.30;71.30;;;;;;5038581;28;20434;-64
2024/03/03 12:10:00;;;;;;;11.32;5.82;;;15.50;70.00;;;;;;5027936;28;20044;-64
2024/03/03 12:12:25;;;;;;;10.27;5.88;;;15.40;69.10;;;;;;5031711;28;20037;-64
2024/03/03 12:14:52;;;;;;;10.93;5.13;;;15.70;69.70;;;;;;5031665;28;20037;-65
2024/03/03 12:17:17;;;;;;;11.07;5.53;;;15.80;69.00;;;;;;5030041;28;20041;-64
2024/03/03 12:19:43;;;;;;;10.95;5.53;;;16.10;68.70;;;;;;5040512;28;20064;-64
2024/03/03 12:22:09;;;;;;;10.43;5.80;;;16.10;69.30;;;;;;5034064;28;20127;-64
2024/03/03 12:24:35;;;;;;;10.02;4.72;;;16.30;67.90;;;;;;5033950;28;20393;-64
2024/03/03 12:27:03;;;;;;;9.85;4.68;;;16.10;66.80;;;;;;5029510;28;20029;-65
2024/03/03 12:29:29;;;;;;;9.43;4.78;;;15.60;67.20;;;;;;5029601;28;20487;-65
2024/03/03 12:31:54;;;;;;;10.10;5.05;;;16.20;65.30;;;;;;5033236;28;20144;-66
2024/03/03 12:34:20;;;;;;;10.55;5.07;;;15.80;66.60;;;;;;5036009;28;20075;-63
2024/03/03 12:36:46;;;;;;;10.27;4.93;;;16.00;65.40;;;;;;5031760;28;20064;-64
2024/03/03 12:39:12;;;;;;;8.45;4.20;;;15.90;64.20;;;;;;5029451;28;20132;-64
2024/03/03 12:41:38;;;;;;;12.68;5.47;;;15.90;66.20;;;;;;5031612;28;20448;-64